Tiempo atmosférico en la estación meteorológica de Cáceres, Cáceres (405 m.)

Fecha
DESCASC
Temp. máxima en grados centígrados (hora)
DESCASC
Temp. mínima en grados centígrados (hora)
DESCASC
Temp. media en grados centígrados
DESCASC
Racha de viento máxima en m/sg (hora)
DESCASC
Velocidad máxima media en intervalos de 10 minutos(hora)
DESCASC
Precipitaciones diarias en mm
DESCASC
Precipitaciones de 00:00 a 06:00 en mm
DESCASC
Precipitaciones de 06:00 a 12:00 en mm
DESCASC
Precipitaciones de 12:00 a 18:00 en mm
DESCASC
Precipitaciones de 18:00 a 24:00 en mm
DESCASC
17-09-2017 26.3 (17:50) 10.6 (08:00) 18.4 9.17 (23:59) 6.39 (23:59) 0 0 0 0 0
16-09-2017 24.3 (18:30) 10.7 (07:40) 17.5 9.72 (17:50) 4.17 (16:00) 0 0 0 0 0
15-09-2017 24.7 (17:20) 13.6 (08:10) 19.2 13.06 (11:10) 7.78 (14:10) 0 0 0 0 0
14-09-2017 30.7 (18:10) 17.2 (00:00) 24 9.17 (22:10) 5 (13:40) 0 0 0 0 0
13-09-2017 33.6 (18:00) 15.2 (00:00) 24.4 8.33 (22:50) 4.44 (22:40) 0 0 0 0 0
12-09-2017 29.7 (16:40) 16.8 (00:00) 23.3 9.17 (14:30) 5.56 (11:40) 0 0 0 0 0
11-09-2017 32.2 (17:30) 16.3 (00:00) 24.3 11.11 (19:20) 6.11 (19:20) 0 0 0 0 0
10-09-2017 26.8 (18:30) 12.8 (00:00) 19.8 10 (00:40) 6.11 (01:40) 0 0 0 0 0
09-09-2017 25.9 (16:00) 16 (00:00) 20.9 13.33 (15:50) 7.5 (15:10) 0 0 0 0 0
08-09-2017 34.2 (17:50) 16.4 (00:00) 25.3 11.11 (23:40) 7.22 (22:20) 0 0 0 0 0
07-09-2017 34 (17:50) 19.5 (00:00) 26.8 7.78 (15:10) 4.17 (13:40) 0 0 0 0 0
06-09-2017 35.4 (17:30) 21.4 (00:00) 28.4 7.78 (00:40) 4.17 (00:10) 0 0 0 0 0
05-09-2017 35 (17:50) 17.6 (00:00) 26.3 9.17 (00:30) 5.56 (00:30) 0 0 0 0 0
04-09-2017 31.6 (18:10) 18.5 (00:00) 25.1 9.72 (10:50) 6.11 (10:50) 0 0 0 0 0
03-09-2017 33.7 (16:30) 17.4 (00:00) 25.6 11.39 (17:40) 5.56 (17:40) 0 0 0 0 0
02-09-2017 31.4 (17:20) 16.1 (00:00) 23.8 6.94 (14:30) 4.17 (10:20) 0 0 0 0 0
01-09-2017 31.4 (17:50) 17.3 (00:00) 24.3 8.61 (17:30) 4.72 (18:30) 0 0 0 0 0
31-08-2017 31 (17:40) 16.4 (00:00) 23.7 6.11 (16:40) 3.06 (16:40) 0 0 0 0 0
30-08-2017 28.5 (18:00) 14 (00:00) 21.3 6.39 (22:20) 4.44 (22:30) 0 0 0 0 0
29-08-2017 26.7 (17:00) 15 (00:00) 20.9 12.22 (17:50) 8.33 (18:00) 8.4 4.6 0 0.2 3.6
28-08-2017 28.6 (16:40) 16.9 (00:00) 22.8 9.44 (16:00) 5.83 (05:10) 1.2 0 0 0 1.2
27-08-2017 31.4 (17:40) 22.7 (00:00) 27.1 15.83 (16:00) 8.61 (16:00) 0.2 0 0 0.2 0
26-08-2017 34.6 (17:10) 20.1 (00:00) 27.3 15 (15:30) 6.67 (13:30) 0 0 0 0 0
25-08-2017 34.1 (16:00) 17.9 (00:00) 26 8.89 (16:00) 5.28 (17:20) 0 0 0 0 0
24-08-2017 33.8 (17:30) 18.3 (00:00) 26 9.17 (19:30) 5 (03:20) 0 0 0 0 0
23-08-2017 36.8 (18:40) 22.3 (00:00) 29.5 8.89 (13:40) 5.83 (13:50) 0 0 0 0 0
22-08-2017 37.3 (18:10) 24.8 (00:00) 31 8.33 (16:40) 5 (04:40) 0 0 0 0 0

Gráficas

Temp. máximas Temp. mínimas Temp. medias Precipitaciones Rachas de viento máximas Velocidades máximas media en intervalos de 10 minutos

Datos horarios

Fecha y hora oficial Temperatura (ºC) Velocidad del viento (km/h) Dirección del viento Racha (km/h) Dirección de racha Precipitación (mm) Presión (hPa) Tendencia (hPa) Humedad (%)
2017-09-20 23:00:00 22.9 11 Sudoeste 15 Sudoeste 0 970.7 0.2 26
2017-09-20 22:00:00 22.9 10 Sudoeste 17 Sudoeste 0 970.5 -0.1 26
2017-09-20 21:00:00 26 12 Sudoeste 18 Sudoeste 0 970.4 -0.2 21
2017-09-20 20:00:00 28.4 12 Sudoeste 18 Sudoeste 0 970.5 -0.5 19
2017-09-20 19:00:00 30.2 7 Oeste 19 Sudoeste 0 970.6 -1.1 19
2017-09-20 18:00:00 30.8 6 Oeste 17 Sudoeste 0 970.6 -1.8 19
2017-09-20 17:00:00 30.6 8 Norte 19 Sudoeste 0 971 -2.1 19
2017-09-20 16:00:00 30.6 8 Sur 19 Sudoeste 0 971.7 -2 17
2017-09-20 15:00:00 29.1 5 Norte 21 Norte 0 972.4 -1.6 22
2017-09-20 14:00:00 28.2 4 Norte 14 Norte 0 973.1 -1.1 25
2017-09-20 13:00:00 26.8 6 Norte 15 Nordeste 0 973.7 -0.3 26
2017-09-20 12:00:00 25.1 5 Nordeste 10 Este 0 974 0 29
2017-09-20 11:00:00 22.2 6 Nordeste 12 Sudeste 0 974.2 0.5 36
2017-09-20 10:00:00 19.1 6 Sur 10 Sudeste 0 974 0.5 44
2017-09-20 09:00:00 13.7 2 Sur 3 Sur 0 974 0.4 59
2017-09-20 08:00:00 13.5 0 Calma 5 Oeste 0 973.7 -0.2 60
2017-09-20 07:00:00 14.2 0 Calma 5 Sudoeste 0 973.5 -0.6 56
2017-09-20 06:00:00 15.2 3 Sur 6 Sur 0 973.6 -0.6 51
2017-09-20 05:00:00 15.6 3 Sur 8 Sur 0 973.9 -0.6 49
2017-09-20 04:00:00 17.4 4 Sudoeste 10 Sudoeste 0 974.1 -0.4 44
2017-09-20 03:00:00 19.2 6 Sudoeste 10 Oeste 0 974.2 -0.6 40
2017-09-20 02:00:00 18.1 6 Sudoeste 12 Sudoeste 0 974.5 -0.3 41
2017-09-20 01:00:00 18.8 2 Sur 6 Sudoeste 0 974.5 -0.2 39
2017-09-20 00:00:00 20 4 Sudoeste 8 Sudoeste 0 974.8 0.4 38
2017-09-19 23:00:00 20.2 6 Sudoeste 10 Sudoeste 0 974.8 0.4 38
2017-09-19 22:00:00 20.4 6 Sudoeste 10 Sudoeste 0 974.7 0.4 37
2017-09-19 21:00:00 21.3 8 Sudoeste 11 Sudoeste 0 974.4 -0.1 34
2017-09-19 20:00:00 25.5 4 Sudoeste 9 Oeste 0 974.4 -0.5 28
2017-09-19 19:00:00 27.9 3 Norte 10 Oeste 0 974.3 -1.1 24
2017-09-19 18:00:00 27.9 4 Este 11 Noroeste 0 974.5 -1.5 23
2017-09-19 17:00:00 27.2 7 Nordeste 13 Sudoeste 0 974.9 -1.9 23
2017-09-19 16:00:00 26.7 5 Noroeste 14 Nordeste 0 975.4 -1.9 27
2017-09-19 15:00:00 25.6 8 Nordeste 18 Norte 0 976 -1.5 29
2017-09-19 14:00:00 24.1 6 Oeste 18 Noroeste 0 976.8 -0.6 35
2017-09-19 13:00:00 22.4 6 Norte 13 Norte 0 977.3 0.4 39
2017-09-19 12:00:00 20.7 5 Norte 14 Noroeste 0 977.5 0.9 46
2017-09-19 11:00:00 18.7 5 Noroeste 10 Noroeste 0 977.4 1.3 54
2017-09-19 10:00:00 16.5 6 Noroeste 10 Noroeste 0 976.9 1.1 65
2017-09-19 09:00:00 13.7 4 Oeste 9 Sudoeste 0 976.6 0.8 76
2017-09-19 08:00:00 13.5 5 Sudoeste 8 Sudoeste 0 976.1 0.4 75
2017-09-19 07:00:00 14.1 5 Oeste 9 Noroeste 0 975.8 -0.2 71
2017-09-19 06:00:00 15.3 6 Noroeste 13 Oeste 0 975.8 -0.5 67
2017-09-19 05:00:00 15.4 5 Oeste 19 Noroeste 0 975.7 -0.7 67
2017-09-19 04:00:00 16.7 9 Oeste 15 Oeste 0 976 -0.4 63
2017-09-19 03:00:00 17.1 7 Oeste 17 Sudoeste 0 976.3 0 60
2017-09-19 02:00:00 17.7 8 Oeste 21 Noroeste 0 976.4 0.5 55
2017-09-19 01:00:00 18.6 10 Noroeste 18 Oeste 0 976.4 0.9 51
2017-09-19 00:00:00 18.8 6 Noroeste 12 Noroeste 0 976.3 1.6 49
2017-09-18 23:00:00 18.9 5 Oeste 9 Oeste 0 975.9 1.6 47
2017-09-18 22:00:00 19.6 5 Oeste 7 Oeste 0 975.5 1.5 43
2017-09-18 21:00:00 21.3 4 Sudoeste 18 Norte 0 974.7 0.7 38
2017-09-18 20:00:00 24.5 12 Norte 24 Norte 0 974.3 0.3 31
2017-09-18 19:00:00 25.5 13 Noroeste 27 Noroeste 0 974 -0.4 31
2017-09-18 18:00:00 25.5 13 Noroeste 34 Noroeste 0 974 -0.8 34
2017-09-18 17:00:00 25.1 13 Noroeste 33 Noroeste 0 974 -1.1 34
2017-09-18 16:00:00 24.5 15 Noroeste 35 Oeste 0 974.4 -1.1 37
2017-09-18 15:00:00 23.2 19 Noroeste 32 Noroeste 0 974.8 -0.9 45
2017-09-18 14:00:00 23 14 Noroeste 29 Noroeste 0 975.1 -0.2 47
2017-09-18 13:00:00 21.5 12 Oeste 21 Oeste 0 975.5 0.6 44
2017-09-18 12:00:00 19.8 11 Noroeste 23 Noroeste 0 975.7 1.4 49
2017-09-18 11:00:00 18.7 9 Noroeste 20 Noroeste 0 975.3 1.6 49
2017-09-18 10:00:00 17.1 11 Oeste 21 Oeste 0 974.9 1.6 49
2017-09-18 09:00:00 14.5 11 Sudoeste 17 Sudoeste 0 974.3 1.4 58
2017-09-18 08:00:00 13.1 5 Oeste 24 Sudoeste 0 973.7 0.7 62
2017-09-18 07:00:00 13.1 13 Oeste 22 Sudoeste 0 973.3 0.3 63
2017-09-18 06:00:00 13.4 7 Oeste 16 Sudoeste 0 972.9 0.3 61
2017-09-18 05:00:00 13.8 9 Oeste 26 Sudoeste 0 973 0.1 60
2017-09-18 04:00:00 14.5 8 Oeste 27 Sudoeste 0 973 -0.1 56
2017-09-18 03:00:00 15.7 17 Sudoeste 28 Sudoeste 0 972.6 -0.2 49
2017-09-18 02:00:00 16.1 21 Oeste 29 Oeste 0 972.9 0.2 49
2017-09-18 01:00:00 16.9 6 Oeste 33 Oeste 0 973.1 0.6 46
2017-09-18 00:00:00 18.2 23 Sudoeste 33 Oeste 0 972.8 1.1 40
2017-09-17 23:00:00 20 18 Sudoeste 30 Sudoeste 0 972.7 1.5 30
2017-09-17 22:00:00 20.3 8 Oeste 18 Oeste 0 972.5 1 26
2017-09-17 21:00:00 20.2 7 Oeste 12 Oeste 0 971.7 0 27
2017-09-17 20:00:00 24.5 6 Oeste 18 Noroeste 0 971.2 -0.4 20
2017-09-17 19:00:00 25.9 8 Oeste 21 Oeste 0 971.5 -0.5 19
2017-09-17 18:00:00 25.7 14 Oeste 24 Sudoeste 0 971.7 -1.1 17
2017-09-17 17:00:00 25.2 13 Noroeste 22 Norte 0 971.6 -1.5 17
2017-09-17 16:00:00 25.1 8 Noroeste 21 Noroeste 0 972 -1.4 18
2017-09-17 15:00:00 24 11 Noroeste 21 Norte 0 972.8 -1 19
2017-09-17 14:00:00 23.5 7 Norte 24 Noroeste 0 973.1 -0.6 21
2017-09-17 13:00:00 21.9 7 Norte 13 Noroeste 0 973.4 0.2 24
2017-09-17 12:00:00 20.3 4 Este 10 Norte 0 973.8 1.3 28
2017-09-17 11:00:00 17.8 4 Norte 8 Norte 0 973.7 1.6 32
2017-09-17 10:00:00 15.7 4 Norte 6 Noroeste 0 973.2 1.4 38
2017-09-17 09:00:00 11.5 3 Oeste 5 Sudoeste 0 972.5 0.9 49
2017-09-17 08:00:00 10.6 4 Sudoeste 8 Sudoeste 0 972.1 0.6 49
2017-09-17 07:00:00 11.6 6 Sudoeste 8 Sudoeste 0 971.8 0.2 46
2017-09-17 06:00:00 11.5 6 Sudoeste 9 Oeste 0 971.6 0 45
2017-09-17 05:00:00 12.2 7 Sudoeste 9 Sudoeste 0 971.5 0 42
2017-09-17 04:00:00 13.3 6 Oeste 9 Oeste 0 971.6 0.1 36
2017-09-17 03:00:00 13.8 6 Oeste 9 Oeste 0 971.6 0.3 34
2017-09-17 02:00:00 14 6 Sudoeste 9 Sudoeste 0 971.5 0.6 33
2017-09-17 01:00:00 13.9 5 Sudoeste 8 Sudoeste 0 971.5 1 34
2017-09-17 00:00:00 14.9 6 Sudoeste 9 Sudoeste 0 971.3 1.6 33
2017-09-16 23:00:00 16.1 4 Sudoeste 8 Oeste 0 970.9 1.7 34
2017-09-16 22:00:00 17 5 Sudoeste 8 Sudoeste 0 970.5 1.3 33
2017-09-16 21:00:00 18.7 5 Sudoeste 9 Oeste 0 969.7 0.8 30
2017-09-16 20:00:00 22.6 5 Oeste 19 Norte 0 969.2 0.1 24
2017-09-16 19:00:00 23.7 13 Norte 28 Norte 0 969.2 0 21
2017-09-16 18:00:00 23.7 13 Noroeste 35 Noroeste 0 968.9 -0.5 21
2017-09-16 17:00:00 23.7 11 Noroeste 28 Noroeste 0 969.1 -0.6 22
2017-09-16 16:00:00 23.7 15 Norte 28 Norte 0 969.2 -0.7 23
2017-09-16 15:00:00 23.1 8 Nordeste 24 Este 0 969.4 -0.7 26
2017-09-16 14:00:00 22.6 9 Nordeste 22 Norte 0 969.7 -0.3 27
2017-09-16 13:00:00 21.8 9 Nordeste 18 Nordeste 0 969.9 0.4 31
2017-09-16 12:00:00 20.4 8 Norte 17 Norte 0 970.1 1 35
2017-09-16 11:00:00 18.3 6 Este 14 Nordeste 0 970 1.8 41
2017-09-16 10:00:00 15.5 5 Norte 12 Norte 0 969.5 1.8 47
2017-09-16 09:00:00 13 3 Oeste 8 Noroeste 0 969.1 1.4 53
2017-09-16 08:00:00 10.9 4 Sudoeste 5 Sudoeste 0 968.2 0.6 57
2017-09-16 07:00:00 11.7 4 Sudoeste 6 Sudoeste 0 967.7 0 52
2017-09-16 06:00:00 12.6 4 Sudoeste 8 Oeste 0 967.7 -0.2 50
2017-09-16 05:00:00 13 5 Oeste 10 Oeste 0 967.6 -0.3 50
2017-09-16 04:00:00 14.1 6 Noroeste 18 Noroeste 0 967.7 -0.1 47
2017-09-16 03:00:00 14.9 10 Noroeste 20 Noroeste 0 967.9 0.1 44
2017-09-16 02:00:00 15.8 13 Noroeste 21 Noroeste 0 967.9 -0.1 39
2017-09-16 01:00:00 16.7 13 Noroeste 23 Noroeste 0 967.8 -0.3 32
2017-09-16 00:00:00 17.5 12 Noroeste 21 Oeste 0 967.8 0.4 30
2017-09-15 23:00:00 18 8 Noroeste 17 Noroeste 0 968 0.9 29
2017-09-15 22:00:00 19 9 Noroeste 24 Noroeste 0 968.1 1.3 27
2017-09-15 21:00:00 20.5 12 Noroeste 34 Noroeste 0 967.4 0.5 25
2017-09-15 20:00:00 22.3 19 Noroeste 36 Noroeste 0 967.1 0 20
2017-09-15 19:00:00 23.7 21 Noroeste 41 Noroeste 0 966.8 -0.7 19
2017-09-15 18:00:00 24.3 22 Noroeste 38 Noroeste 0 966.9 -1.1 19
2017-09-15 17:00:00 24.3 18 Noroeste 36 Noroeste 0 967.1 -1.3 21
2017-09-15 16:00:00 23.8 18 Noroeste 40 Norte 0 967.5 -1.1 24
2017-09-15 15:00:00 23.2 24 Noroeste 45 Norte 0 968 -1.2 26
2017-09-15 14:00:00 22.1 23 Norte 40 Norte 0 968.4 -0.5 30
2017-09-15 13:00:00 21 23 Noroeste 38 Norte 0 968.6 0.2 35
2017-09-15 12:00:00 19.5 24 Norte 47 Norte 0 969.2 0.7 38
2017-09-15 11:00:00 17.7 24 Norte 40 Norte 0 968.9 0.5 43
2017-09-15 10:00:00 15.8 22 Noroeste 38 Noroeste 0 968.4 0.1 50
2017-09-15 09:00:00 14.3 15 Noroeste 30 Noroeste 0 968.5 0.4 54
2017-09-15 08:00:00 13.7 8 Oeste 24 Noroeste 0 968.4 -0.1 54
2017-09-15 07:00:00 14.5 11 Oeste 27 Oeste 0 968.3 -0.6 57
2017-09-15 06:00:00 15.2 12 Oeste 27 Oeste 0 968.1 -1.2 55
2017-09-15 05:00:00 16.3 11 Oeste 20 Oeste 0 968.5 -0.9 48
2017-09-15 04:00:00 17 11 Oeste 24 Oeste 0 968.9 -0.9 46
2017-09-15 03:00:00 17.2 15 Oeste 31 Oeste 0 969.3 -1 50
2017-09-15 02:00:00 18.1 18 Oeste 32 Oeste 0 969.4 -0.7 42
2017-09-15 01:00:00 19.8 16 Oeste 31 Oeste 0 969.8 -0.1 30
2017-09-15 00:00:00 21.4 11 Oeste 31 Noroeste 0 970.3 0.7 45
2017-09-14 23:00:00 23.7 17 Oeste 33 Oeste 0 970.1 0.3 44
2017-09-14 22:00:00 25.5 15 Oeste 31 Oeste 0 969.9 0 39
2017-09-14 21:00:00 27 12 Sudoeste 21 Oeste 0 969.6 -1 32
2017-09-14 20:00:00 28.7 13 Oeste 25 Oeste 0 969.8 -1.5 32
2017-09-14 19:00:00 29.8 16 Noroeste 28 Noroeste 0 969.9 -2.3 30
2017-09-14 18:00:00 30.6 9 Noroeste 31 Norte 0 970.6 -2.5 26
2017-09-14 17:00:00 30.3 17 Noroeste 30 Noroeste 0 971.3 -2.4 24
2017-09-14 16:00:00 29.4 14 Norte 31 Noroeste 0 972.2 -2.3 30
2017-09-14 15:00:00 27.3 16 Noroeste 28 Noroeste 0 973.1 -1.8 31
2017-09-14 14:00:00 27.4 11 Noroeste 30 Noroeste 0 973.7 -1.1 27
2017-09-14 13:00:00 26.6 12 Noroeste 24 Noroeste 0 974.5 0.2 31
2017-09-14 12:00:00 24.7 12 Noroeste 20 Noroeste 0 974.9 1 40
2017-09-14 11:00:00 22.1 11 Noroeste 20 Noroeste 0 974.8 1.4 47
2017-09-14 10:00:00 20.1 12 Noroeste 22 Sudoeste 0 974.3 1 53
2017-09-14 09:00:00 18.1 18 Sudoeste 25 Sudoeste 0 973.9 0.5 59
2017-09-14 08:00:00 17.3 7 Oeste 12 Oeste 0 973.4 -0.1 59
2017-09-14 07:00:00 18.6 6 Oeste 21 Oeste 0 973.3 -0.3 54
2017-09-14 06:00:00 19.3 12 Oeste 25 Sudoeste 0 973.4 -0.5 52
2017-09-14 05:00:00 20.2 15 Sudoeste 25 Oeste 0 973.5 -0.5 48
2017-09-14 04:00:00 20.5 9 Sudoeste 14 Sudoeste 0 973.6 -0.5 50
2017-09-14 03:00:00 22.4 5 Oeste 18 Oeste 0 973.9 0 45
2017-09-14 02:00:00 23.3 8 Oeste 17 Oeste 0 974 0.1 41
2017-09-14 01:00:00 24.1 8 Oeste 19 Oeste 0 974.1 0.7 41
2017-09-14 00:00:00 25.3 11 Oeste 24 Oeste 0 973.9 1 40
2017-09-13 23:00:00 27 15 Oeste 30 Oeste 0 973.9 1.3 34
2017-09-13 22:00:00 25.9 8 Sudoeste 13 Sudoeste 0 973.4 0.6 30
2017-09-13 21:00:00 27.1 6 Sudoeste 10 Oeste 0 972.9 -0.1 28
2017-09-13 20:00:00 31.5 7 Oeste 17 Oeste 0 972.6 -1 22
2017-09-13 19:00:00 32.8 12 Noroeste 19 Noroeste 0 972.8 -1.3 20
2017-09-13 18:00:00 33.6 9 Sudoeste 21 Noroeste 0 973 -1.8 20
2017-09-13 17:00:00 33 12 Noroeste 22 Noroeste 0 973.6 -1.8 20
2017-09-13 16:00:00 32.8 6 Norte 20 Sudoeste 0 974.1 -1.7 21
2017-09-13 15:00:00 31.9 12 Sudoeste 22 Oeste 0 974.8 -1.2 22
2017-09-13 14:00:00 30.7 6 Norte 18 Noroeste 0 975.4 -0.6 25
2017-09-13 13:00:00 28.9 7 Nordeste 14 Este 0 975.8 0.1 27
2017-09-13 12:00:00 27.1 7 Nordeste 14 Sudeste 0 976 0.7 30
2017-09-13 11:00:00 23.5 4 Nordeste 8 Nordeste 0 976 1.3 42
2017-09-13 10:00:00 20.6 4 Norte 6 Noroeste 0 975.7 1.3 50
2017-09-13 09:00:00 17.6 3 Noroeste 7 Sudoeste 0 975.3 1.3 60
2017-09-13 08:00:00 15.2 4 Oeste 8 Oeste 0 974.7 0.5 67
2017-09-13 07:00:00 16.5 4 Sudoeste 7 Oeste 0 974.4 -0.1 64
2017-09-13 06:00:00 17.2 4 Sudoeste 7 Sudoeste 0 974 -0.8 61
2017-09-13 05:00:00 18.4 4 Sudoeste 6 Sudoeste 0 974.2 -0.6 57
2017-09-13 04:00:00 19.2 3 Sudoeste 9 Sudoeste 0 974.5 -0.2 54
2017-09-13 03:00:00 20.2 5 Sudoeste 9 Oeste 0 974.8 0.2 52
2017-09-13 02:00:00 21 4 Sudoeste 9 Sudoeste 0 974.8 0.2 49
2017-09-13 01:00:00 21.3 5 Sudoeste 6 Oeste 0 974.7 0.8 48
2017-09-13 00:00:00 22.3 4 Noroeste 8 Oeste 0 974.6 1.5 44
2017-09-12 23:00:00 23 5 Oeste 13 Noroeste 0 974.6 1.9 43
2017-09-12 22:00:00 24.7 6 Noroeste 16 Noroeste 0 973.9 1.3 38
2017-09-12 21:00:00 26.5 10 Noroeste 20 Noroeste 0 973.1 0.6 33
2017-09-12 20:00:00 28.4 13 Noroeste 24 Noroeste 0 972.7 0.3 30
2017-09-12 19:00:00 29.4 14 Noroeste 26 Norte 0 972.6 0 29
2017-09-12 18:00:00 29.5 15 Noroeste 32 Noroeste 0 972.5 -0.6 28
2017-09-12 17:00:00 29.4 13 Norte 31 Noroeste 0 972.4 -0.8 27
2017-09-12 16:00:00 29.3 15 Norte 31 Noroeste 0 972.6 -0.8 27
2017-09-12 15:00:00 28.5 15 Norte 33 Noroeste 0 973.1 -0.3 27
2017-09-12 14:00:00 27.4 14 Norte 32 Noroeste 0 973.2 0.3 30
2017-09-12 13:00:00 25.9 14 Noroeste 33 Noroeste 0 973.4 0.7 32
2017-09-12 12:00:00 23.3 16 Norte 30 Noroeste 0 973.4 1.1 39
2017-09-12 11:00:00 21.3 19 Noroeste 28 Norte 0 972.9 1.5 45
2017-09-12 10:00:00 19.4 14 Noroeste 24 Noroeste 0 972.7 1.6 54
2017-09-12 09:00:00 17.7 9 Noroeste 17 Noroeste 0 972.3 1.4 60
2017-09-12 08:00:00 17.3 9 Noroeste 17 Noroeste 0 971.4 0.5 61
2017-09-12 07:00:00 17.2 8 Noroeste 14 Noroeste 0 971.1 0.2 61
2017-09-12 06:00:00 17.8 4 Oeste 14 Noroeste 0 970.9 0.2 58
2017-09-12 05:00:00 18.9 10 Noroeste 21 Noroeste 0 970.9 0.1 53
2017-09-12 04:00:00 19.8 12 Noroeste 20 Noroeste 0 970.9 0 49
2017-09-12 03:00:00 20.8 14 Noroeste 22 Noroeste 0 970.7 0.1 45
2017-09-12 02:00:00 21.7 10 Noroeste 19 Noroeste 0 970.8 0.6 42
2017-09-12 01:00:00 22.4 8 Noroeste 18 Oeste 0 970.9 1.2 40
2017-09-12 00:00:00 23.8 10 Noroeste 20 Noroeste 0 970.6 1.7 37
2017-09-11 23:00:00 24.9 7 Oeste 19 Oeste 0 970.2 1.6 36
2017-09-11 22:00:00 25.9 6 Oeste 17 Noroeste 0 969.7 1.2 33
2017-09-11 21:00:00 28.2 11 Noroeste 29 Noroeste 0 968.9 0.3 26
2017-09-11 20:00:00 30.7 17 Noroeste 40 Noroeste 0 968.6 -0.2 22
2017-09-11 19:00:00 31.9 20 Noroeste 37 Noroeste 0 968.5 -1 17
2017-09-11 18:00:00 32 19 Noroeste 35 Noroeste 0 968.6 -1.6 22
2017-09-11 17:00:00 31.9 15 Noroeste 32 Noroeste 0 968.8 -2.1 25
2017-09-11 16:00:00 31 17 Noroeste 31 Noroeste 0 969.5 -1.7 27
2017-09-11 15:00:00 30.1 9 Noroeste 21 Noroeste 0 970.2 -1 28
2017-09-11 14:00:00 28.9 9 Norte 21 Noroeste 0 970.9 -0.1 31
2017-09-11 13:00:00 26.8 10 Noroeste 23 Noroeste 0 971.2 0.4 40
2017-09-11 12:00:00 25.1 12 Noroeste 21 Noroeste 0 971.2 0.7 44
2017-09-11 11:00:00 22.9 9 Noroeste 16 Noroeste 0 971 0.7 50
2017-09-11 10:00:00 20.8 6 Noroeste 14 Noroeste 0 970.8 0.8 55
2017-09-11 09:00:00 17.9 5 Oeste 8 Oeste 0 970.5 0.5 63
2017-09-11 08:00:00 16.5 4 Oeste 9 Oeste 0 970.3 0 65
2017-09-11 07:00:00 16.7 6 Oeste 9 Noroeste 0 970 -0.5 65
2017-09-11 06:00:00 17.5 4 Oeste 8 Noroeste 0 970 -0.7 60
2017-09-11 05:00:00 18.3 5 Oeste 15 Noroeste 0 970.3 -0.7 54
2017-09-11 04:00:00 19.3 5 Oeste 13 Oeste 0 970.5 -0.4 47
2017-09-11 03:00:00 20 5 Oeste 12 Noroeste 0 970.7 -0.2 42
2017-09-11 02:00:00 19.8 7 Oeste 12 Oeste 0 971 0.4 37
2017-09-11 01:00:00 19.9 5 Oeste 9 Sudoeste 0 970.9 0.5 33
2017-09-11 00:00:00 21.5 5 Noroeste 13 Noroeste 0 970.9 1.1 30
2017-09-10 23:00:00 22.1 6 Noroeste 14 Noroeste 0 970.6 0.9 26
2017-09-10 22:00:00 22 6 Oeste 10 Noroeste 0 970.4 0.6 26
2017-09-10 21:00:00 22.7 7 Sudoeste 10 Sudoeste 0 969.8 0.2 26
2017-09-10 20:00:00 26 6 Noroeste 19 Noroeste 0 969.7 -0.3 20
2017-09-10 19:00:00 26.5 10 Noroeste 26 Noroeste 0 969.8 -0.5 19
2017-09-10 18:00:00 26.3 11 Noroeste 24 Noroeste 0 969.6 -1.3 19
2017-09-10 17:00:00 25.8 12 Norte 30 Norte 0 970 -1.2 19
2017-09-10 16:00:00 25.2 11 Noroeste 24 Norte 0 970.3 -1 21
2017-09-10 15:00:00 23.8 8 Oeste 24 Norte 0 970.9 -0.5 25
2017-09-10 14:00:00 23 8 Noroeste 22 Noroeste 0 971.2 0.1 29
2017-09-10 13:00:00 21.6 5 Este 18 Norte 0 971.3 0.6 32
2017-09-10 12:00:00 19.6 12 Noroeste 21 Noroeste 0 971.4 1 39
2017-09-10 11:00:00 17.5 12 Norte 21 Noroeste 0 971.1 1.6 45
2017-09-10 10:00:00 15.7 12 Norte 24 Noroeste 0 970.7 1.6 50
2017-09-10 09:00:00 13.9 11 Noroeste 19 Noroeste 0 970.4 1.3 58
2017-09-10 08:00:00 12.8 12 Noroeste 22 Noroeste 0 969.5 0.7 62
2017-09-10 07:00:00 13.4 10 Noroeste 23 Noroeste 0 969.1 0.6 60
2017-09-10 06:00:00 13.9 9 Noroeste 24 Noroeste 0 969.1 0.2 60
2017-09-10 05:00:00 14.4 11 Noroeste 28 Noroeste 0 968.8 0.2 56
2017-09-10 04:00:00 14.9 19 Noroeste 28 Noroeste 0 968.5 0.2 60
2017-09-10 03:00:00 15.6 14 Noroeste 35 Noroeste 0 968.9 1 59
2017-09-10 02:00:00 16.3 17 Noroeste 35 Noroeste 0 968.6 1.4 57
2017-09-10 01:00:00 16.9 17 Noroeste 36 Noroeste 0 968.3 1.7 54
2017-09-10 00:00:00 17.6 15 Noroeste 41 Noroeste 0 967.9 2.2 51
2017-09-09 23:00:00 19 18 Noroeste 34 Oeste 0 967.2 2 44
2017-09-09 22:00:00 20.3 18 Oeste 35 Noroeste 0 966.6 1.3 41
2017-09-09 21:00:00 21.7 21 Noroeste 42 Noroeste 0 965.7 0.6 32
2017-09-09 20:00:00 23.4 22 Noroeste 41 Noroeste 0 965.2 -0.1 28
2017-09-09 19:00:00 24.8 23 Noroeste 44 Noroeste 0 965.3 -0.3 25
2017-09-09 18:00:00 25.7 20 Noroeste 44 Noroeste 0 965.1 -0.9 27
2017-09-09 17:00:00 25.7 25 Noroeste 46 Noroeste 0 965.3 -1.1 25
2017-09-09 16:00:00 25.7 23 Noroeste 48 Noroeste 0 965.6 -1.4 24
2017-09-09 15:00:00 25.4 22 Noroeste 44 Noroeste 0 966 -1.3 27
2017-09-09 14:00:00 23.8 24 Noroeste 43 Noroeste 0 966.4 -0.9 32
2017-09-09 13:00:00 22.3 22 Noroeste 40 Noroeste 0 967 -0.1 42
2017-09-09 12:00:00 20.7 20 Noroeste 40 Norte 0 967.3 0.3 50
2017-09-09 11:00:00 19.4 18 Noroeste 37 Noroeste 0 967.3 0.5 56
2017-09-09 10:00:00 18.1 17 Noroeste 31 Noroeste 0 967.1 0.5 60
2017-09-09 09:00:00 16.7 14 Oeste 26 Oeste 0 967 0.9 65
2017-09-09 08:00:00 16.2 13 Oeste 30 Noroeste 0 966.8 0.8 65
2017-09-09 07:00:00 16.6 17 Oeste 32 Oeste 0 966.6 0.4 61
2017-09-09 06:00:00 16.1 15 Oeste 36 Sudoeste 0 966.1 -0.4 61
2017-09-09 05:00:00 16.4 22 Oeste 38 Oeste 0 966 -1.1 55
2017-09-09 04:00:00 17 21 Oeste 37 Oeste 0 966.2 -0.8 48
2017-09-09 03:00:00 18 23 Oeste 33 Sudoeste 0 966.5 -0.5 39
2017-09-09 02:00:00 19.2 22 Sudoeste 36 Oeste 0 967.1 0.1 31
2017-09-09 01:00:00 20.7 18 Oeste 35 Oeste 0 967 0.5 28
2017-09-09 00:00:00 22 18 Oeste 40 Oeste 0 967 0.4 27
2017-09-08 23:00:00 24.2 13 Oeste 37 Sudoeste 0 967 0.9 25
2017-09-08 22:00:00 26.5 18 Oeste 31 Oeste 0 966.5 0.6 15
2017-09-08 21:00:00 28.8 17 Oeste 37 Oeste 0 966.6 0.3 14
2017-09-08 20:00:00 31.7 20 Oeste 35 Oeste 0 966.1 -0.8 12
2017-09-08 19:00:00 33.6 15 Oeste 31 Noroeste 0 965.9 -1.8 7
2017-09-08 18:00:00 34 11 Oeste 30 Noroeste 0 966.3 -2.3 8
2017-09-08 17:00:00 33.7 15 Oeste 31 Oeste 0 966.9 -2.3 9
2017-09-08 16:00:00 33 13 Oeste 28 Noroeste 0 967.7 -2 7
2017-09-08 15:00:00 32 13 Oeste 24 Oeste 0 968.6 -1.2 12
2017-09-08 14:00:00 30.3 13 Noroeste 23 Noroeste 0 969.2 -0.7 15
2017-09-08 13:00:00 28.4 8 Noroeste 19 Noroeste 0 969.7 -0.2 18
2017-09-08 12:00:00 26 8 Norte 13 Noroeste 0 969.8 0.2 23
2017-09-08 11:00:00 22.7 3 Norte 7 Norte 0 969.9 0.4 27
2017-09-08 10:00:00 20.4 4 Noroeste 7 Norte 0 969.9 0.5 31
2017-09-08 09:00:00 17.6 5 Sudoeste 8 Sudoeste 0 969.6 0.1 39
2017-09-08 08:00:00 16.5 5 Sudoeste 9 Sudoeste 0 969.5 -0.2 38
2017-09-08 07:00:00 16.8 6 Sudoeste 8 Oeste 0 969.4 -0.5 36
2017-09-08 06:00:00 17.2 5 Sudoeste 8 Sudoeste 0 969.5 -0.8 35
2017-09-08 05:00:00 18.2 5 Sudoeste 9 Sudoeste 0 969.7 -0.8 33
2017-09-08 04:00:00 19 5 Sudoeste 10 Sudoeste 0 969.9 -0.7 30
2017-09-08 03:00:00 20.7 8 Sudoeste 10 Oeste 0 970.3 -0.5 27
2017-09-08 02:00:00 21.5 7 Sudoeste 11 Sudoeste 0 970.5 -0.3 25
2017-09-08 01:00:00 22.1 7 Sudoeste 12 Sudoeste 0 970.6 0.2 24
2017-09-08 00:00:00 23 6 Oeste 11 Oeste 0 970.8 1 22
2017-09-07 23:00:00 23.9 6 Oeste 13 Oeste 0 970.8 1.2 19
2017-09-07 22:00:00 25.3 6 Oeste 9 Sudoeste 0 970.4 0.8 19
2017-09-07 21:00:00 27.6 6 Sudoeste 16 Norte 0 969.8 0.3 20
2017-09-07 20:00:00 32 8 Norte 17 Nordeste 0 969.6 -0.4 15
2017-09-07 19:00:00 33.2 8 Norte 21 Nordeste 0 969.6 -1 16
2017-09-07 18:00:00 33.8 12 Norte 22 Norte 0 969.5 -1.5 17
2017-09-07 17:00:00 33.8 6 Nordeste 21 Nordeste 0 970 -1.5 19
2017-09-07 16:00:00 33.1 10 Nordeste 28 Norte 0 970.6 -1.2 22
2017-09-07 15:00:00 32.2 10 Norte 26 Norte 0 971 -1.1 25
2017-09-07 14:00:00 31.9 12 Norte 26 Norte 0 971.5 -0.5 24
2017-09-07 13:00:00 30.7 11 Este 22 Norte 0 971.8 0.3 26
2017-09-07 12:00:00 29.1 10 Nordeste 21 Nordeste 0 972.1 0.4 30
2017-09-07 11:00:00 26.6 12 Norte 21 Norte 0 972 0.7 38
2017-09-07 10:00:00 23.4 3 Noroeste 9 Noroeste 0 971.5 0.4 43
2017-09-07 09:00:00 20.7 4 Oeste 8 Oeste 0 971.7 0.6 51
2017-09-07 08:00:00 19.8 5 Sudoeste 10 Oeste 0 971.3 0.1 53
2017-09-07 07:00:00 19.9 5 Oeste 10 Oeste 0 971.1 -0.4 52
2017-09-07 06:00:00 20.3 7 Oeste 10 Oeste 0 971.1 -0.8 47
2017-09-07 05:00:00 21.2 6 Sudoeste 10 Oeste 0 971.2 -0.8 46
2017-09-07 04:00:00 22.2 5 Oeste 12 Noroeste 0 971.5 -0.5 47
2017-09-07 03:00:00 23.5 7 Noroeste 13 Noroeste 0 971.9 0 46
2017-09-07 02:00:00 23.7 6 Oeste 10 Oeste 0 972 0.2 45
2017-09-07 01:00:00 24.8 8 Oeste 12 Oeste 0 972 0.5 41
2017-09-07 00:00:00 26.1 8 Oeste 14 Oeste 0 971.9 0.7 37
2017-09-06 23:00:00 27 7 Oeste 10 Oeste 0 971.8 0.6 32
2017-09-06 22:00:00 26.6 7 Sudoeste 9 Sudoeste 0 971.5 0.3 33
2017-09-06 21:00:00 29 6 Sudoeste 14 Norte 0 971.2 -0.3 30
2017-09-06 20:00:00 33.3 9 Norte 21 Norte 0 971.2 -0.9 23
2017-09-06 19:00:00 34.5 11 Norte 22 Noroeste 0 971.2 -1.6 23
2017-09-06 18:00:00 35.1 10 Norte 23 Norte 0 971.5 -1.9 22
2017-09-06 17:00:00 35.1 12 Noroeste 22 Noroeste 0 972.1 -1.9 21
2017-09-06 16:00:00 34.8 11 Noroeste 21 Noroeste 0 972.8 -1.8 22
2017-09-06 15:00:00 34 8 Noroeste 19 Noroeste 0 973.4 -1.6 23
2017-09-06 14:00:00 33 8 Noroeste 20 Noroeste 0 974 -1 25
2017-09-06 13:00:00 31.4 5 Norte 15 Norte 0 974.6 -0.3 28
2017-09-06 12:00:00 28.9 8 Norte 14 Norte 0 975 0.2 30
2017-09-06 11:00:00 27.1 6 Norte 13 Norte 0 975 0.5 36
2017-09-06 10:00:00 25 4 Norte 9 Noroeste 0 974.9 0.8 41
2017-09-06 09:00:00 22 3 Oeste 6 Oeste 0 974.8 0.7 48
2017-09-06 08:00:00 21.6 4 Oeste 10 Oeste 0 974.5 0.3 47
2017-09-06 07:00:00 22 6 Oeste 10 Oeste 0 974.1 -0.4 44
2017-09-06 06:00:00 22.6 7 Oeste 10 Oeste 0 974.1 -0.8 43
2017-09-06 05:00:00 23.2 7 Oeste 9 Oeste 0 974.2 -0.9 44
2017-09-06 04:00:00 23.6 6 Oeste 13 Oeste 0 974.5 -0.7 45
2017-09-06 03:00:00 24.8 7 Oeste 15 Oeste 0 974.9 -0.3 45
2017-09-06 02:00:00 26.1 9 Oeste 24 Oeste 0 975.1 0.1 42
2017-09-06 01:00:00 26.8 13 Oeste 28 Oeste 0 975.2 0.6 43
2017-09-06 00:00:00 27.5 15 Oeste 28 Sudoeste 0 975.2 1.1 43
2017-09-05 23:00:00 27.9 14 Sudoeste 20 Oeste 0 975 1.2 34
2017-09-05 22:00:00 27.2 6 Sudoeste 9 Oeste 0 974.6 1 36
2017-09-05 21:00:00 29.8 6 Oeste 10 Noroeste 0 974.1 0.5 32
2017-09-05 20:00:00 33.6 7 Noroeste 19 Noroeste 0 973.8 -0.2 25
2017-09-05 19:00:00 34.7 6 Noroeste 21 Oeste 0 973.6 -0.6 24
2017-09-05 18:00:00 34.5 7 Norte 18 Sudoeste 0 973.6 -1.1 24
2017-09-05 17:00:00 34.6 7 Oeste 25 Sudoeste 0 974 -1.3 25
2017-09-05 16:00:00 33.7 12 Norte 19 Noroeste 0 974.2 -1.4 26
2017-09-05 15:00:00 32.8 8 Nordeste 20 Norte 0 974.7 -0.9 30
2017-09-05 14:00:00 31.9 9 Noroeste 16 Norte 0 975.3 0 33
2017-09-05 13:00:00 30.5 8 Noroeste 15 Noroeste 0 975.6 0.7 38
2017-09-05 12:00:00 28.3 7 Este 18 Este 0 975.6 0.9 44
2017-09-05 11:00:00 25.5 9 Este 14 Este 0 975.3 1.1 52
2017-09-05 10:00:00 22.7 4 Norte 10 Este 0 974.9 1.2 63
2017-09-05 09:00:00 19.9 3 Sudeste 5 Sudeste 0 974.7 1.1 71
2017-09-05 08:00:00 17.7 0 Calma 6 Sur 0 974.2 0.9 80
2017-09-05 07:00:00 17.9 4 Sudoeste 7 Sudoeste 0 973.7 0.2 78
2017-09-05 06:00:00 18.7 3 Sudoeste 5 Sudoeste 0 973.6 0.3 74
2017-09-05 05:00:00 20.3 3 Sudeste 21 Oeste 0 973.3 0.2 68
2017-09-05 04:00:00 21.4 10 Sudoeste 19 Sudoeste 0 973.5 0.6 66
2017-09-05 03:00:00 22.2 4 Noroeste 10 Noroeste 0 973.3 0.8 61
2017-09-05 02:00:00 23.4 7 Noroeste 19 Oeste 0 973.1 1 57
2017-09-05 01:00:00 23.8 10 Oeste 33 Sudoeste 0 972.9 1.4 55
2017-09-05 00:00:00 25.1 13 Oeste 21 Oeste 0 972.5 1.7 49
2017-09-04 23:00:00 26.3 10 Oeste 18 Sudoeste 0 972.1 1.6 45
2017-09-04 22:00:00 25.5 9 Sudoeste 11 Sudoeste 0 971.5 1 42
2017-09-04 21:00:00 27.4 6 Sudoeste 10 Oeste 0 970.8 0.4 37
2017-09-04 20:00:00 30.9 8 Oeste 22 Oeste 0 970.5 0 30
2017-09-04 19:00:00 31.4 10 Noroeste 26 Noroeste 0 970.5 -0.2 29
2017-09-04 18:00:00 31.5 8 Noroeste 26 Noroeste 0 970.4 -0.8 29
2017-09-04 17:00:00 30.9 13 Noroeste 31 Noroeste 0 970.5 -1 29
2017-09-04 16:00:00 30.1 13 Noroeste 28 Noroeste 0 970.7 -1.2 31
2017-09-04 15:00:00 28.9 14 Noroeste 31 Noroeste 0 971.2 -0.7 34
2017-09-04 14:00:00 27.4 14 Noroeste 30 Noroeste 0 971.5 0.1 39
2017-09-04 13:00:00 26.1 15 Noroeste 30 Noroeste 0 971.9 0.7 43
2017-09-04 12:00:00 24.2 19 Noroeste 33 Noroeste 0 971.9 0.9 50
2017-09-04 11:00:00 22.5 19 Noroeste 35 Noroeste 0 971.4 1.1 54
2017-09-04 10:00:00 20.9 14 Noroeste 28 Noroeste 0 971.2 1.3 61
2017-09-04 09:00:00 19.4 14 Noroeste 24 Noroeste 0 971 1.2 64
2017-09-04 08:00:00 18.5 11 Oeste 22 Noroeste 0 970.3 0.4 67
2017-09-04 07:00:00 18.8 10 Oeste 23 Noroeste 0 969.9 0 65
2017-09-04 06:00:00 19 10 Oeste 24 Noroeste 0 969.8 0 64
2017-09-04 05:00:00 19.7 16 Noroeste 27 Noroeste 0 969.9 0 57
2017-09-04 04:00:00 20.6 14 Oeste 28 Noroeste 0 969.9 0.1 50
2017-09-04 03:00:00 20.6 11 Oeste 23 Oeste 0 969.8 0.1 46
2017-09-04 02:00:00 21.7 10 Oeste 27 Noroeste 0 969.9 0.5 38
2017-09-04 01:00:00 22.6 17 Oeste 33 Oeste 0 969.8 0.9 32
2017-09-04 00:00:00 23.8 13 Oeste 30 Oeste 0 969.7 1.2 24
2017-09-03 23:00:00 25.7 17 Oeste 36 Oeste 0 969.4 0.9 17
2017-09-03 22:00:00 27.6 18 Oeste 35 Sudoeste 0 968.9 0.5 15
2017-09-03 21:00:00 29 14 Oeste 24 Oeste 0 968.5 0 8
2017-09-03 20:00:00 31.5 16 Oeste 34 Oeste 0 968.5 -0.2 5
2017-09-03 19:00:00 32.6 17 Oeste 30 Oeste 0 968.4 -1.2 11
2017-09-03 18:00:00 33.4 17 Noroeste 41 Noroeste 0 968.5 -1.7 12
2017-09-03 17:00:00 33.2 9 Oeste 36 Oeste 0 968.7 -1.7 16
2017-09-03 16:00:00 32.8 15 Oeste 32 Oeste 0 969.6 -1.4 18
2017-09-03 15:00:00 32.3 10 Noroeste 27 Noroeste 0 970.2 -1.3 16
2017-09-03 14:00:00 32.1 11 Oeste 29 Sudoeste 0 970.4 -1.3 16
2017-09-03 13:00:00 31 11 Oeste 26 Oeste 0 971 -0.9 17
2017-09-03 12:00:00 28.9 6 Norte 11 Norte 0 971.5 -0.4 24
2017-09-03 11:00:00 25.7 4 Norte 7 Norte 0 971.7 -0.2 28
2017-09-03 10:00:00 22.2 3 Norte 5 Norte 0 971.9 0.2 37
2017-09-03 09:00:00 18.3 4 Sudoeste 6 Noroeste 0 971.9 0 45
2017-09-03 08:00:00 17.8 4 Noroeste 7 Noroeste 0 971.9 -0.2 46
2017-09-03 07:00:00 18 4 Oeste 10 Este 0 971.7 -0.8 42
2017-09-03 06:00:00 19.3 3 Sudeste 9 Sudoeste 0 971.9 -0.9 36
2017-09-03 05:00:00 18.6 3 Sur 8 Oeste 0 972.1 -0.5 38
2017-09-03 04:00:00 18.8 4 Sudoeste 10 Noroeste 0 972.5 -0.6 44
2017-09-03 03:00:00 20.7 6 Noroeste 10 Noroeste 0 972.8 -0.6 35
2017-09-03 02:00:00 22.1 5 Sudeste 12 Sudeste 0 972.6 -0.8 31
2017-09-03 01:00:00 23 8 Sudeste 10 Sudeste 0 973.1 0 30
2017-09-03 00:00:00 22.2 5 Sudoeste 8 Sudeste 0 973.4 0.7 36
2017-09-02 23:00:00 23 5 Sudoeste 7 Sur 0 973.4 0.9 33
2017-09-02 22:00:00 23.7 6 Sudoeste 8 Sudoeste 0 973.1 0.3 33
2017-09-02 21:00:00 26.5 3 Sudoeste 12 Norte 0 972.7 -0.5 30
2017-09-02 20:00:00 30.5 6 Norte 17 Nordeste 0 972.5 -1 21
2017-09-02 19:00:00 31.1 8 Norte 17 Nordeste 0 972.8 -1.3 21
2017-09-02 18:00:00 31.3 10 Norte 23 Nordeste 0 973.2 -1.5 21
2017-09-02 17:00:00 31.2 10 Norte 23 Nordeste 0 973.5 -1.6 22
2017-09-02 16:00:00 31.1 9 Nordeste 23 Norte 0 974.1 -1.4 22
2017-09-02 15:00:00 29.6 12 Nordeste 25 Nordeste 0 974.7 -1.2 23
2017-09-02 14:00:00 28.8 12 Nordeste 23 Este 0 975.1 -0.9 25
2017-09-02 13:00:00 26.9 14 Nordeste 25 Nordeste 0 975.5 -0.2 27
2017-09-02 12:00:00 25.3 13 Nordeste 23 Nordeste 0 975.9 0.7 30
2017-09-02 11:00:00 23.4 14 Nordeste 23 Nordeste 0 976 1.2 33
2017-09-02 10:00:00 21.6 15 Nordeste 23 Este 0 975.7 1.6 37
2017-09-02 09:00:00 19.4 9 Nordeste 13 Este 0 975.2 1.4 43
2017-09-02 08:00:00 16.6 3 Sudeste 8 Sudeste 0 974.8 1.2 54
2017-09-02 07:00:00 16.9 3 Nordeste 7 Este 0 974.1 0.5 53
2017-09-02 06:00:00 16.4 3 Oeste 8 Sur 0 973.8 0.4 58
2017-09-02 05:00:00 18 5 Sudoeste 8 Sudoeste 0 973.6 0.3 50
2017-09-02 04:00:00 18.2 5 Sudoeste 7 Oeste 0 973.6 0.5 49
2017-09-02 03:00:00 19 4 Oeste 9 Oeste 0 973.4 0.5 46
2017-09-02 02:00:00 19.7 5 Oeste 12 Noroeste 0 973.3 0.8 43
2017-09-02 01:00:00 21.8 5 Noroeste 17 Noroeste 0 973.1 1.3 37
2017-09-02 00:00:00 23.1 10 Noroeste 17 Noroeste 0 972.9 1.9 31
2017-09-01 23:00:00 23.8 4 Noroeste 15 Norte 0 972.5 1.9 30
2017-09-01 22:00:00 25 3 Oeste 13 Noroeste 0 971.8 1.4 30
2017-09-01 21:00:00 27.5 3 Noroeste 19 Noroeste 0 971 0.7 25
2017-09-01 20:00:00 30.2 11 Noroeste 24 Noroeste 0 970.6 -0.1 17
2017-09-01 19:00:00 30.8 15 Noroeste 31 Noroeste 0 970.4 -0.6 15
2017-09-01 18:00:00 31.2 12 Norte 31 Noroeste 0 970.3 -1.4 20
2017-09-01 17:00:00 31.1 11 Noroeste 27 Noroeste 0 970.7 -1.4 19
2017-09-01 16:00:00 30.8 13 Norte 29 Noroeste 0 971 -1.5 24
2017-09-01 15:00:00 30.1 11 Norte 27 Nordeste 0 971.7 -1.1 26
2017-09-01 14:00:00 29.6 12 Norte 24 Noroeste 0 972.1 -0.7 29
2017-09-01 13:00:00 28.9 12 Nordeste 26 Nordeste 0 972.5 0.2 32
2017-09-01 12:00:00 27.4 14 Nordeste 24 Nordeste 0 972.8 0.9 40
2017-09-01 11:00:00 24.7 9 Norte 14 Norte 0 972.8 1.3 49
2017-09-01 10:00:00 22.3 4 Nordeste 12 Nordeste 0 972.3 1.2 55
2017-09-01 09:00:00 19.2 2 Sudoeste 5 Sudoeste 0 971.9 0.7 67
2017-09-01 08:00:00 17.5 4 Sudoeste 7 Sudoeste 0 971.5 0.3 72
2017-09-01 07:00:00 17.7 6 Sudoeste 8 Sudoeste 0 971.1 0 69
2017-09-01 06:00:00 18.1 4 Sudoeste 6 Sudoeste 0 971.2 0 68
2017-09-01 05:00:00 18.7 4 Sudoeste 8 Sudoeste 0 971.2 0 66
2017-09-01 04:00:00 19.4 5 Sudoeste 9 Sudoeste 0 971.1 0.1 64
2017-09-01 03:00:00 20 5 Sudoeste 8 Sudoeste 0 971.2 0.1 61
2017-09-01 02:00:00 20.6 6 Sudoeste 21 Noroeste 0 971.2 0.3 54
2017-09-01 01:00:00 21.4 9 Sudoeste 10 Sudoeste 0 971 0.4 47
2017-09-01 00:00:00 21.9 7 Sudoeste 10 Sudoeste 0 971.1 0.9 47
2017-08-31 23:00:00 23.3 3 Sur 9 Sudoeste 0 970.9 1.1 45
2017-08-31 22:00:00 24.3 7 Oeste 9 Sudoeste 0 970.6 0.8 42
2017-08-31 21:00:00 26.3 5 Oeste 13 Noroeste 0 970.2 0.3 38
2017-08-31 20:00:00 30.1 3 Oeste 13 Nordeste 0 969.8 -0.5 27
2017-08-31 19:00:00 30.3 8 Norte 16 Norte 0 969.8 -0.9 29
2017-08-31 18:00:00 30.5 8 Noroeste 17 Noroeste 0 969.9 -1.5 29
2017-08-31 17:00:00 30.1 9 Norte 22 Noroeste 0 970.3 -1.5 30
2017-08-31 16:00:00 28.9 9 Norte 17 Noroeste 0 970.7 -1.6 35
2017-08-31 15:00:00 27.7 6 Este 16 Sudeste 0 971.4 -1.2 39
2017-08-31 14:00:00 27.9 6 Norte 19 Norte 0 971.8 -0.6 41
2017-08-31 13:00:00 26.3 7 Norte 16 Norte 0 972.3 -- 46
2017-08-31 12:00:00 24.1 8 Noroeste 12 Norte 0 972.6 -- 58
2017-08-31 11:00:00 21.9 4 Norte 11 Norte 0 972.4 -- 68
2017-08-31 10:00:00 20.7 5 Nordeste 9 Norte 0 -- -- 71
2017-08-31 09:00:00 17.8 0 Calma 6 Sudoeste 0 -- -- 85
2017-08-31 08:00:00 16.5 5 Sudoeste 8 Sudoeste 0 -- -- 87
2017-08-31 07:00:00 16.7 4 Sudoeste 6 Sudoeste 0 -- -- 85
2017-08-31 06:00:00 17.2 4 Sudoeste 6 Sudoeste 0 -- -- 84
2017-08-31 05:00:00 18.1 4 Sudoeste 7 Oeste 0 -- -- 79
2017-08-31 04:00:00 18.5 4 Oeste 12 Oeste 0 970.3 -- 79
2017-08-31 03:00:00 19.8 7 Noroeste 14 Noroeste 0 -- -- 71
2017-08-31 02:00:00 20.2 7 Oeste 16 Oeste 0 -- -- 68
2017-08-31 01:00:00 20.9 5 Noroeste 16 Oeste 0 -- -- 64
2017-08-31 00:00:00 22.1 12 Oeste 23 Oeste 0 -- -- 56
2017-08-30 23:00:00 23.2 11 Oeste 23 Sur 0 -- -- 52
2017-08-30 22:00:00 23.9 10 Sudoeste 16 Sudoeste 0 -- -- 48
2017-08-30 21:00:00 25.4 8 Sur 18 Sur 0 969.2 -0.1 41
2017-08-30 20:00:00 27 9 Sudoeste 15 Sudoeste 0 969 -0.6 36
2017-08-30 19:00:00 28.2 6 Sur 18 Sudoeste 0 969 -1 31
2017-08-30 18:00:00 28.4 6 Oeste 17 Sudoeste 0 969.3 -1.3 30
2017-08-30 17:00:00 26.7 7 Norte 21 Sur 0 969.6 -1.4 35
2017-08-30 16:00:00 27.2 4 Sudoeste 18 Sudoeste 0 970 -1.3 35
2017-08-30 15:00:00 26.3 8 Sudoeste 19 Sudoeste 0 970.6 -0.7 37
2017-08-30 14:00:00 24.8 9 Oeste 19 Oeste 0 971 -- 40
2017-08-30 13:00:00 23.7 7 Noroeste 14 Noroeste 0 971.3 -- 46
2017-08-30 12:00:00 -- -- -- -- -- -- -- -- --
2017-08-30 11:00:00 -- -- -- -- -- -- -- -- --
2017-08-30 10:00:00 -- -- -- -- -- -- -- -- --
2017-08-30 09:00:00 -- -- -- -- -- -- -- -- --
2017-08-30 08:00:00 -- -- -- -- -- -- -- -- --
2017-08-30 07:00:00 -- -- -- -- -- -- -- -- --
2017-08-30 06:00:00 -- -- -- -- -- -- -- -- --
2017-08-30 05:00:00 -- -- -- -- -- -- -- -- --
2017-08-30 04:00:00 -- -- -- -- -- -- -- -- --
2017-08-30 03:00:00 -- -- -- -- -- -- -- -- --
2017-08-30 02:00:00 -- -- -- -- -- -- -- -- --
2017-08-30 01:00:00 -- -- -- -- -- -- -- -- --
2017-08-30 00:00:00 -- -- -- -- -- -- -- -- --
2017-08-29 23:00:00 -- -- -- -- -- -- -- -- --
2017-08-29 22:00:00 -- -- -- -- -- -- -- -- --
2017-08-29 21:00:00 -- -- -- -- -- -- -- -- --
2017-08-29 20:00:00 -- -- -- -- -- -- -- -- --
2017-08-29 19:00:00 -- -- -- -- -- -- -- -- --
2017-08-29 18:00:00 -- -- -- -- -- -- -- -- --
2017-08-29 17:00:00 -- -- -- -- -- -- -- -- --
2017-08-29 16:00:00 -- -- -- -- -- -- -- -- --
2017-08-29 15:00:00 -- -- -- -- -- -- -- -- --
2017-08-29 14:00:00 -- -- -- -- -- -- -- -- --
2017-08-29 13:00:00 -- -- -- -- -- -- -- -- --
2017-08-29 12:00:00 -- -- -- -- -- -- -- -- --
2017-08-29 11:00:00 -- -- -- -- -- -- -- -- --
2017-08-29 10:00:00 -- -- -- -- -- -- -- -- --
2017-08-29 09:00:00 -- -- -- -- -- -- -- -- --
2017-08-29 08:00:00 -- -- -- -- -- -- -- -- --
2017-08-29 07:00:00 -- -- -- -- -- -- -- -- --
2017-08-29 06:00:00 -- -- -- -- -- -- -- -- --
2017-08-29 05:00:00 -- -- -- -- -- -- -- -- --
2017-08-29 04:00:00 -- -- -- -- -- -- -- -- --
2017-08-29 03:00:00 -- -- -- -- -- -- -- -- --
2017-08-29 02:00:00 -- -- -- -- -- -- -- -- --
2017-08-29 01:00:00 -- -- -- -- -- -- -- -- --
2017-08-29 00:00:00 -- -- -- -- -- -- -- -- --
2017-08-28 23:00:00 -- -- -- -- -- -- -- -- --
2017-08-28 22:00:00 -- -- -- -- -- -- -- -- --
2017-08-28 21:00:00 -- -- -- -- -- -- -- -- --
2017-08-28 20:00:00 -- -- -- -- -- -- -- -- --
2017-08-28 19:00:00 -- -- -- -- -- -- -- -- --
2017-08-28 18:00:00 -- -- -- -- -- -- -- -- --
2017-08-28 17:00:00 -- -- -- -- -- -- -- -- --
2017-08-28 16:00:00 -- -- -- -- -- -- -- -- --
2017-08-28 15:00:00 -- -- -- -- -- -- -- -- --
2017-08-28 14:00:00 -- -- -- -- -- -- -- -- --
2017-08-28 13:00:00 -- -- -- -- -- -- -- -- --
2017-08-28 12:00:00 -- -- -- -- -- -- -- -- --
2017-08-28 11:00:00 -- -- -- -- -- -- -- -- --
2017-08-28 10:00:00 -- -- -- -- -- -- -- -- --
2017-08-28 09:00:00 -- -- -- -- -- -- -- -- --
2017-08-28 08:00:00 -- -- -- -- -- -- -- -- --
2017-08-28 07:00:00 -- -- -- -- -- -- -- -- --
2017-08-28 06:00:00 -- -- -- -- -- -- -- -- --
2017-08-28 05:00:00 -- -- -- -- -- -- -- -- --
2017-08-28 04:00:00 -- -- -- -- -- -- -- -- --
2017-08-28 03:00:00 -- -- -- -- -- -- -- -- --
2017-08-28 02:00:00 -- -- -- -- -- -- -- -- --
2017-08-28 01:00:00 -- -- -- -- -- -- -- -- --
2017-08-28 00:00:00 -- -- -- -- -- -- -- -- --
2017-08-27 23:00:00 -- -- -- -- -- -- -- -- --
2017-08-27 22:00:00 25.9 10 Sudoeste 19 Sudoeste 0 -- -- 35
2017-08-27 21:00:00 27.3 11 Sudoeste 24 Oeste 0 965.9 0.3 33
2017-08-27 20:00:00 28.8 8 Oeste 27 Sudoeste 0 965.4 -0.5 33
2017-08-27 19:00:00 29.7 13 Sur 29 Sur 0 965.5 -1.3 36
2017-08-27 18:00:00 29.3 15 Sur 32 Sur 0 965.6 -1.1 39
2017-08-27 17:00:00 30.4 13 Sudoeste 35 Sudeste 0 965.9 -1.5 37
2017-08-27 16:00:00 25.6 31 Sur 57 Sur 0.2 966.8 -0.7 65
2017-08-27 15:00:00 30.2 16 Sudoeste 43 Sur 0 966.7 -0.7 35
2017-08-27 14:00:00 29.9 26 Sur 46 Sur 0 967.4 -0.3 32
2017-08-27 13:00:00 28.9 21 Sur 38 Sur 0 967.5 -- 36
2017-08-27 12:00:00 27.5 16 Sur 37 Sur 0 967.4 -- 37
2017-08-27 11:00:00 26.5 13 Sudoeste 21 Sudoeste 0 967.7 -- 37
2017-08-27 10:00:00 26.2 12 Sudeste 17 Sudeste 0 -- -- 33
2017-08-27 09:00:00 24.9 11 Sudeste 16 Sudeste 0 -- -- 34
2017-08-27 08:00:00 23.1 9 Sudeste 15 Sudeste 0 -- -- 42
2017-08-27 07:00:00 23.2 3 Sudeste 10 Oeste 0 -- -- 45
2017-08-27 06:00:00 23.3 4 Sudoeste 8 Sudeste 0 -- -- 44
2017-08-27 05:00:00 24.4 2 Nordeste 14 Sudoeste 0 -- -- 38
2017-08-27 04:00:00 24.5 6 Oeste 14 Oeste 0 -- -- 38
2017-08-27 03:00:00 24.6 6 Oeste 9 Oeste 0 -- -- 37
2017-08-27 02:00:00 25.2 3 Oeste 12 Oeste 0 -- -- 35
2017-08-27 01:00:00 26.7 8 Oeste 23 Oeste 0 -- -- 31
2017-08-27 00:00:00 27.8 14 Oeste 29 Oeste 0 966.9 0.9 27
2017-08-26 23:00:00 26.2 7 Sudoeste 9 Sudoeste 0 966.3 0.2 31
2017-08-26 22:00:00 29.2 2 Este 17 Oeste 0 966.2 -0.4 26
2017-08-26 21:00:00 30.6 5 Sur 20 Sudeste 0 966 -0.5 22
2017-08-26 20:00:00 32.9 14 Sudeste 28 Sur 0 966.1 -0.9 18
2017-08-26 19:00:00 33.8 14 Sur 30 Sur 0 966.6 -0.8 18
2017-08-26 18:00:00 33.2 16 Sur 43 Sur 0 966.5 -1.1 19
2017-08-26 17:00:00 33.7 24 Sur 49 Sur 0 967 -1.4 20
2017-08-26 16:00:00 32.5 10 Sur 54 Sudoeste 0 967.4 -1.8 21
2017-08-26 15:00:00 31.6 14 Sur 46 Oeste 0 967.6 -2.2 24
2017-08-26 14:00:00 30.8 22 Sur 43 Sur 0 968.4 -- 23
2017-08-26 13:00:00 30.1 20 Sur 41 Sur 0 969.2 -0.8 25
2017-08-26 12:00:00 26.3 4 Noroeste 13 Este 0 969.8 -- 29
2017-08-26 11:00:00 25.6 5 Sudoeste 31 Sudoeste 0 -- -- 30
2017-08-26 10:00:00 25.2 12 Sudoeste 31 Sur 0 970 1.7 22
2017-08-26 09:00:00 22.6 11 Sur 23 Sur 0 -- -- 26
2017-08-26 08:00:00 20.5 6 Noroeste 9 Noroeste -- 968.8 -- 36
2017-08-26 07:00:00 20.9 2 Norte 8 Sur 0 968.3 -- 33
2017-08-26 06:00:00 20.2 4 Sur 8 Sudoeste 0 968.1 -- 38
2017-08-26 05:00:00 20.7 5 Sudoeste 10 Sudoeste 0 -- -- 38
2017-08-26 04:00:00 21.6 4 Sudoeste 7 Este 0 -- -- 36
2017-08-26 03:00:00 23.1 4 Sudoeste 8 Oeste 0 -- -- 35
2017-08-26 02:00:00 24.8 4 Oeste 18 Sudoeste 0 -- -- 28
2017-08-26 01:00:00 25.6 13 Sudoeste 22 Oeste 0 -- -- 13
2017-08-26 00:00:00 25.5 12 Sudoeste 18 Oeste 0 -- -- 13
2017-08-25 23:00:00 26 14 Sudoeste 20 Sudoeste 0 969 1.1 11
2017-08-25 22:00:00 28.5 15 Sudoeste 21 Sudoeste 0 968.6 0.6 12
2017-08-25 21:00:00 30.3 10 Oeste 21 Sudoeste 0 968 -0.1 20
2017-08-25 20:00:00 32.5 11 Oeste 25 Sudoeste 0 967.9 -0.5 16
2017-08-25 19:00:00 33.1 17 Sudoeste 30 Oeste 0 968 -0.7 18
2017-08-25 18:00:00 33.1 13 Sudoeste 32 Sudoeste 0 968.1 -1.1 19
2017-08-25 17:00:00 33.5 11 Sudoeste 28 Sudoeste 0 968.4 -1.3 16
2017-08-25 16:00:00 34 16 Sudoeste 32 Oeste 0 968.7 -1.7 15
2017-08-25 15:00:00 33.2 13 Sudoeste 24 Sur 0 969.2 -1.5 20
2017-08-25 14:00:00 32.7 11 Sur 23 Sur 0 969.7 -1 20
2017-08-25 13:00:00 30.5 10 Sudeste 22 Sudeste 0 970.4 -0.2 24
2017-08-25 12:00:00 28.2 3 Noroeste 10 Norte 0 970.7 0.1 28
2017-08-25 11:00:00 26 6 Nordeste 11 Nordeste 0 970.7 0.2 32
2017-08-25 10:00:00 22.4 0 Calma 5 Norte 0 970.6 0.4 41
2017-08-25 09:00:00 20.3 3 Noroeste 8 Sudoeste 0 970.6 0.4 47
2017-08-25 08:00:00 18.6 5 Sur 8 Sudoeste 0 970.5 -0.1 50
2017-08-25 07:00:00 18 5 Sudoeste 10 Sudoeste 0 970.2 -0.3 52
2017-08-25 06:00:00 18.3 8 Sudoeste 10 Sudoeste 0 970.2 -0.5 52
2017-08-25 05:00:00 19.4 5 Sudoeste 8 Sudoeste 0 970.6 -0.4 48
2017-08-25 04:00:00 19.9 5 Sudoeste 8 Oeste 0 970.5 -- 48
2017-08-25 03:00:00 20.5 5 Sudoeste 7 Sudoeste 0 970.7 -- 47
2017-08-25 02:00:00 22.4 3 Sudoeste 13 Oeste 0 971 0.2 39
2017-08-25 01:00:00 23.6 8 Oeste 19 Oeste 0 -- -- 34
2017-08-25 00:00:00 25.4 9 Oeste 21 Oeste 0 -- -- 30
2017-08-24 23:00:00 26.7 10 Oeste 21 Oeste 0 970.8 1.8 26
2017-08-24 22:00:00 27.8 10 Oeste 19 Oeste 0 970.3 1.1 23
2017-08-24 21:00:00 30 10 Oeste 25 Sudoeste 0 969.5 -0.1 19
2017-08-24 20:00:00 32 16 Sudoeste 33 Sudoeste 0 969 -1 17
2017-08-24 19:00:00 33.6 15 Sudoeste 33 Sur 0 969.2 -1.2 16
2017-08-24 18:00:00 32.9 13 Sudoeste 31 Oeste 0 969.6 -1.1 18
2017-08-24 17:00:00 33.6 11 Sudoeste 30 Sudoeste 0 970 -0.8 16
2017-08-24 16:00:00 32.7 10 Sudoeste 31 Noroeste 0 970.4 -0.7 19
2017-08-24 15:00:00 32 12 Sudoeste 25 Sudoeste 0 970.7 -0.6 20
2017-08-24 14:00:00 30.7 12 Sudoeste 27 Sudoeste 0 970.8 -0.2 21
2017-08-24 13:00:00 29.4 15 Oeste 31 Sudoeste 0 971.1 0.3 25
2017-08-24 12:00:00 27.4 8 Sudoeste 17 Sudoeste 0 971.3 -- 36
2017-08-24 11:00:00 25.8 3 Este 11 Sudoeste 0 971 1 37
2017-08-24 10:00:00 23.1 5 Norte 9 Norte 0 970.8 1.3 45
2017-08-24 09:00:00 20.3 0 Calma 5 Sudoeste 0 -- -- 52
2017-08-24 08:00:00 18.5 3 Oeste 11 Nordeste 0 970 0.8 56
2017-08-24 07:00:00 21.5 9 Norte 21 Sudoeste 0 969.5 0.1 47
2017-08-24 06:00:00 23.3 6 Sudoeste 24 Sudoeste 0 969.4 -- 40
2017-08-24 05:00:00 23.5 13 Sudoeste 22 Sudoeste 0 969.2 -0.6 42
2017-08-24 04:00:00 23.1 16 Sudoeste 25 Sudoeste 0 969.4 -0.5 44
2017-08-24 03:00:00 24.2 15 Sudoeste 22 Sudoeste 0 -- -- 41
2017-08-24 02:00:00 23.8 5 Noroeste 14 Sudoeste 0 969.8 0.5 43
2017-08-24 01:00:00 25.5 3 Noroeste 14 Oeste 0 969.9 1.1 40
2017-08-24 00:00:00 27.2 5 Norte 32 Oeste 0 969.8 1.5 36
2017-08-23 23:00:00 29.4 14 Oeste 26 Sudoeste 0 969.3 1 31
2017-08-23 22:00:00 31.5 14 Oeste 28 Oeste 0 968.8 0.4 21
2017-08-23 21:00:00 33.1 13 Oeste 29 Oeste 0 968.3 -0.1 15
2017-08-23 20:00:00 35.1 15 Sudoeste 28 Sudoeste 0 968.3 -0.7 16
2017-08-23 19:00:00 36.5 15 Oeste 30 Oeste 0 968.4 -1.1 16
2017-08-23 18:00:00 36.7 14 Oeste 29 Sudoeste 0 968.4 -1.2 16
2017-08-23 17:00:00 36.3 12 Sudoeste 27 Sudoeste 0 969 -1 15
2017-08-23 16:00:00 35.2 16 Sudoeste 30 Oeste 0 969.5 -0.9 14
2017-08-23 15:00:00 35.9 15 Sudoeste 31 Sudoeste 0 969.6 -1 14
2017-08-23 14:00:00 35.9 17 Sur 32 Sur 0 970 -0.6 16
2017-08-23 13:00:00 34.8 14 Sudoeste 26 Sur 0 970.4 0.2 19
2017-08-23 12:00:00 32.5 12 Sudoeste 24 Sudoeste 0 970.6 -- 28
2017-08-23 11:00:00 30.7 9 Sudoeste 15 Sur 0 970.6 0.8 31
2017-08-23 10:00:00 27.6 3 Nordeste 7 Este 0 970.2 0.8 38
2017-08-23 09:00:00 24.6 0 Calma 6 Sudoeste 0 -- -- 44
2017-08-23 08:00:00 22.4 4 Sudoeste 7 Sudoeste 0 969.8 0.1 48
2017-08-23 07:00:00 24.1 5 Sudoeste 10 Sudoeste 0 969.4 -0.3 43
2017-08-23 06:00:00 24.8 7 Sudoeste 12 Sudoeste 0 969.3 -0.6 43
2017-08-23 05:00:00 25.3 6 Sudoeste 17 Oeste 0 969.7 -0.2 43
2017-08-23 04:00:00 26 12 Sudoeste 21 Sudoeste 0 969.7 -0.3 43
2017-08-23 03:00:00 27.1 7 Oeste 17 Oeste 0 969.9 -0.3 39
2017-08-23 02:00:00 28.1 7 Oeste 22 Oeste 0 969.9 0.1 36
2017-08-23 01:00:00 28.9 12 Oeste 22 Oeste 0 970 1 35
2017-08-23 00:00:00 29.6 12 Noroeste 24 Oeste 0 970.2 1.6 34
2017-08-22 23:00:00 31.2 15 Oeste 26 Oeste 0 969.8 1.3 28
2017-08-22 22:00:00 32.1 14 Sudoeste 19 Oeste 0 969 0.3 22
2017-08-22 21:00:00 34 14 Sudoeste 23 Sudoeste 0 968.6 -0.4 25
2017-08-22 20:00:00 36.2 6 Noroeste 21 Noroeste 0 968.5 -1 21
2017-08-22 19:00:00 36.6 11 Oeste 19 Oeste 0 968.7 -1.6 22
2017-08-22 18:00:00 37.1 5 Sudoeste 24 Noroeste 0 969 -2 21
2017-08-22 17:00:00 36.7 7 Norte 30 Noroeste 0 969.5 -1.9 23
2017-08-22 16:00:00 35.9 9 Noroeste 27 Sudoeste 0 970.3 -1.7 25
2017-08-22 15:00:00 35.7 8 Oeste 18 Noroeste 0 971 -1.2 25
2017-08-22 14:00:00 34.6 10 Sudoeste 22 Noroeste 0 971.4 -0.7 26
2017-08-22 13:00:00 33.3 9 Noroeste 17 Noroeste 0 972 0 28
2017-08-22 12:00:00 31.6 9 Oeste 17 Oeste 0 972.2 0.7 32
2017-08-22 11:00:00 30 7 Sudoeste 15 Sudoeste 0 972.1 1.1 38
2017-08-22 10:00:00 28.1 5 Sudoeste 13 Sur 0 972 1.2 44
2017-08-22 09:00:00 26.7 4 Noroeste 9 Noroeste 0 971.5 1 44
2017-08-22 08:00:00 25 2 Norte 10 Sur 0 971 0.6 45
2017-08-22 07:00:00 25.9 8 Sudeste 23 Sudoeste 0 970.8 0.4 40
2017-08-22 06:00:00 27.3 15 Sudoeste 23 Sudoeste 0 970.5 0.5 39
2017-08-22 05:00:00 27.3 15 Sudoeste 26 Sudoeste 0 970.4 0.3 39
2017-08-22 04:00:00 27.7 12 Sudoeste 18 Sudoeste 0 970.4 0.5 34
2017-08-22 03:00:00 28.1 13 Oeste 22 Sudoeste 0 970 0.2 33
2017-08-22 02:00:00 28.5 6 Oeste 14 Oeste 0 970.1 0.5 35
2017-08-22 01:00:00 29.1 6 Oeste 22 Noroeste 0 969.9 0.7 36
2017-08-22 00:00:00 30.6 10 Oeste 17 Oeste 0 969.8 1.1 36